createdAt,value
2022-08-25T00:02:55.627Z,32.97
2022-08-25T00:06:02.898Z,24.03
2022-08-25T00:09:14.617Z,26.63
2022-08-25T00:12:22.276Z,24.43
2022-08-25T00:15:31.275Z,25.93
2022-08-25T00:18:37.680Z,25.37
2022-08-25T00:21:45.869Z,25.50
2022-08-25T00:24:52.143Z,31.50
2022-08-25T00:28:03.057Z,22.40
2022-08-25T00:31:14.590Z,22.87
2022-08-25T00:34:25.781Z,21.10
2022-08-25T00:37:32.274Z,22.80
2022-08-25T00:40:41.426Z,24.77
2022-08-25T00:43:52.842Z,22.40
2022-08-25T00:47:02.805Z,22.93
2022-08-25T00:50:11.309Z,20.37
2022-08-25T00:53:17.902Z,29.07
2022-08-25T00:56:24.306Z,27.70
2022-08-25T00:59:32.627Z,23.67
2022-08-25T01:02:39.335Z,27.73
2022-08-25T01:05:47.082Z,22.70
2022-08-25T01:08:54.616Z,20.33
2022-08-25T01:12:02.371Z,21.90
2022-08-25T01:15:13.794Z,24.97
2022-08-25T01:18:20.409Z,24.27
2022-08-25T01:21:31.728Z,25.13
2022-08-25T01:24:43.821Z,22.10
2022-08-25T01:27:50.902Z,22.63
2022-08-25T01:30:57.787Z,25.87
2022-08-25T01:34:05.645Z,25.70
2022-08-25T01:37:16.200Z,26.27
2022-08-25T01:40:23.088Z,21.03
2022-08-25T01:43:38.122Z,21.87
2022-08-25T01:46:44.873Z,20.67
2022-08-25T01:49:51.229Z,23.27
2022-08-25T01:53:05.665Z,26.73
2022-08-25T01:56:16.087Z,20.20
2022-08-25T01:59:24.355Z,22.30
2022-08-25T02:02:31.627Z,22.30
2022-08-25T02:05:40.143Z,28.20
2022-08-25T02:08:52.227Z,28.50
2022-08-25T02:11:59.253Z,25.63
2022-08-25T02:15:08.594Z,25.63
2022-08-25T02:18:15.318Z,26.60
2022-08-25T02:21:21.629Z,26.43
2022-08-25T02:24:29.703Z,27.10
2022-08-25T02:27:36.368Z,29.30
2022-08-25T02:30:44.264Z,25.07
2022-08-25T02:33:51.028Z,22.60
2022-08-25T02:36:57.369Z,22.10
2022-08-25T02:40:07.486Z,25.77
2022-08-25T02:43:14.000Z,24.50
2022-08-25T02:46:22.951Z,24.07
2022-08-25T02:49:29.405Z,32.80
2022-08-25T02:52:36.301Z,23.93
2022-08-25T02:55:44.255Z,23.40
2022-08-25T02:58:50.774Z,20.83
2022-08-25T03:01:57.392Z,23.70
2022-08-25T03:05:05.034Z,25.90
2022-08-25T03:08:12.283Z,23.00
2022-08-25T03:11:21.073Z,24.77
2022-08-25T03:14:27.306Z,22.23
2022-08-25T03:17:33.701Z,26.70
2022-08-25T03:20:43.037Z,21.17
2022-08-25T03:23:49.487Z,24.67
2022-08-25T03:26:56.179Z,27.70
2022-08-25T03:30:03.355Z,23.70
2022-08-25T03:33:09.855Z,24.13
2022-08-25T03:36:17.279Z,20.93
2022-08-25T03:39:26.684Z,22.70
2022-08-25T03:42:34.894Z,22.23
2022-08-25T03:45:43.110Z,23.60
2022-08-25T03:48:49.648Z,26.90
2022-08-25T03:51:56.213Z,23.43
2022-08-25T03:55:03.373Z,24.07
2022-08-25T03:58:11.078Z,22.33
2022-08-25T04:01:18.353Z,23.10
2022-08-25T04:04:25.613Z,24.73
2022-08-25T04:07:32.239Z,29.40
2022-08-25T04:10:39.340Z,30.40
2022-08-25T04:13:48.880Z,22.27
2022-08-25T04:16:55.300Z,29.47
2022-08-25T04:20:02.752Z,27.83
2022-08-25T04:23:09.665Z,30.03
2022-08-25T04:26:20.693Z,27.23
2022-08-25T04:29:28.601Z,28.20
2022-08-25T04:32:37.346Z,28.67
2022-08-25T04:35:49.592Z,24.93
2022-08-25T04:38:55.924Z,26.63
2022-08-25T04:42:03.449Z,32.60
2022-08-25T04:45:11.678Z,27.93
2022-08-25T04:48:18.393Z,27.40
2022-08-25T04:51:29.328Z,23.27
2022-08-25T04:54:36.024Z,26.43
2022-08-25T04:57:43.373Z,25.70
2022-08-25T05:00:51.357Z,28.77
2022-08-25T05:04:01.016Z,24.63
2022-08-25T05:07:07.430Z,29.20
2022-08-25T05:10:13.932Z,28.83
2022-08-25T05:13:21.277Z,30.27
2022-08-25T05:16:29.910Z,34.30
2022-08-25T05:19:37.170Z,26.60
2022-08-25T05:22:47.109Z,27.27
2022-08-25T05:25:54.193Z,28.03
2022-08-25T05:29:04.119Z,29.90
2022-08-25T05:32:11.968Z,25.33
2022-08-25T05:35:19.474Z,24.93
2022-08-25T05:38:25.802Z,24.77
2022-08-25T05:41:33.464Z,23.57
2022-08-25T05:44:39.706Z,31.50
2022-08-25T05:47:47.386Z,21.87
2022-08-25T05:50:54.152Z,22.30
2022-08-25T05:54:00.854Z,26.20
2022-08-25T05:57:09.158Z,24.17
2022-08-25T06:00:17.185Z,27.43
2022-08-25T06:03:25.277Z,25.77
2022-08-25T06:06:31.844Z,27.93
2022-08-25T06:09:39.765Z,35.57
2022-08-25T06:12:47.774Z,26.67
2022-08-25T06:15:58.755Z,29.13
2022-08-25T06:19:06.961Z,28.27
2022-08-25T06:22:13.633Z,26.73
2022-08-25T06:25:23.554Z,23.50
2022-08-25T06:28:30.033Z,29.80
2022-08-25T06:31:36.589Z,22.87
2022-08-25T06:34:44.182Z,29.67
2022-08-25T06:37:50.958Z,21.87
2022-08-25T06:40:58.096Z,25.10
2022-08-25T06:44:05.648Z,27.27
2022-08-25T06:47:12.518Z,24.43
2022-08-25T06:50:20.481Z,21.33
2022-08-25T06:53:27.049Z,26.97
2022-08-25T06:56:34.599Z,19.83
2022-08-25T06:59:41.532Z,24.50
2022-08-25T07:02:48.117Z,21.57
2022-08-25T07:05:57.250Z,23.40
2022-08-25T07:09:06.552Z,17.70
2022-08-25T07:12:12.938Z,21.53
2022-08-25T07:15:20.864Z,15.60
2022-08-25T07:18:27.930Z,11.82
2022-08-25T07:21:38.925Z,12.30
2022-08-25T07:24:45.585Z,12.47
2022-08-25T07:27:56.978Z,12.00
2022-08-25T07:31:05.224Z,8.95
2022-08-25T07:38:02.881Z,8.93
2022-08-25T07:41:10.571Z,7.63
2022-08-25T07:44:16.882Z,10.25
2022-08-25T07:47:23.588Z,10.82
2022-08-25T07:50:32.043Z,7.43
2022-08-25T07:53:40.240Z,11.43
2022-08-25T07:56:46.759Z,9.23
2022-08-25T07:59:53.461Z,9.30
2022-08-25T08:03:00.968Z,4.60
2022-08-25T08:06:12.446Z,4.32
2022-08-25T08:09:20.480Z,8.35
2022-08-25T08:12:27.905Z,8.98
2022-08-25T08:15:35.641Z,10.55
2022-08-25T08:18:43.654Z,9.57
2022-08-25T08:21:50.714Z,7.78
2022-08-25T08:25:00.226Z,8.00
2022-08-25T08:28:07.542Z,4.93
2022-08-25T08:31:14.387Z,5.43
2022-08-25T08:34:24.991Z,2.83
2022-08-25T08:37:31.407Z,11.00
2022-08-25T08:41:09.727Z,5.50
2022-08-25T08:44:27.561Z,4.80
2022-08-25T08:47:50.635Z,5.47
2022-08-25T08:51:09.992Z,2.42
2022-08-25T08:54:23.134Z,5.50
2022-08-25T08:57:35.680Z,3.47
2022-08-25T09:00:52.220Z,7.40
2022-08-25T09:04:05.945Z,7.00
2022-08-25T09:07:18.036Z,6.93
2022-08-25T09:10:46.205Z,4.00
2022-08-25T09:14:12.267Z,7.93
2022-08-25T09:17:37.520Z,6.68
2022-08-25T09:20:57.683Z,5.80
2022-08-25T09:24:28.113Z,10.02
2022-08-25T09:27:41.957Z,7.20
2022-08-25T09:30:56.464Z,10.35
2022-08-25T09:34:06.033Z,10.80
2022-08-25T09:37:12.749Z,11.07
2022-08-25T09:40:19.588Z,5.22
2022-08-25T09:43:33.409Z,6.15
2022-08-25T09:46:41.262Z,10.80
2022-08-25T09:50:00.157Z,8.07
2022-08-25T09:53:18.746Z,6.03
2022-08-25T09:56:31.259Z,10.57
2022-08-25T09:59:38.856Z,6.80
2022-08-25T10:03:06.034Z,8.02
2022-08-25T10:06:16.420Z,11.02
2022-08-25T10:09:30.797Z,11.43
2022-08-25T10:12:43.178Z,15.25
2022-08-25T10:16:05.510Z,12.43
2022-08-25T10:19:30.750Z,13.68
2022-08-25T10:22:39.073Z,10.45
2022-08-25T10:25:59.396Z,15.25
2022-08-25T10:29:21.491Z,20.30
2022-08-25T10:32:41.097Z,12.55
2022-08-25T10:35:58.430Z,14.13
2022-08-25T10:39:05.621Z,15.98
2022-08-25T10:42:39.854Z,20.35
2022-08-25T10:45:54.554Z,22.05
2022-08-25T10:49:06.195Z,23.50
2022-08-25T10:52:25.227Z,22.55
2022-08-25T10:55:43.224Z,23.67
2022-08-25T10:59:09.325Z,17.85
2022-08-25T11:02:49.389Z,29.17
2022-08-25T11:06:01.583Z,25.83
2022-08-25T11:09:13.815Z,23.60
2022-08-25T11:12:29.859Z,22.67
2022-08-25T11:15:50.241Z,27.27
2022-08-25T11:19:17.350Z,21.08
2022-08-25T11:22:31.353Z,23.25
2022-08-25T11:25:45.870Z,20.00
2022-08-25T11:29:02.583Z,23.60
2022-08-25T11:32:09.529Z,20.98
2022-08-25T11:35:20.971Z,25.73
2022-08-25T11:38:44.905Z,19.00
2022-08-25T11:42:12.276Z,23.77
2022-08-25T11:45:54.877Z,19.33
2022-08-25T11:49:16.825Z,19.35
2022-08-25T11:52:49.166Z,17.45
2022-08-25T11:56:02.525Z,17.33
2022-08-25T11:59:10.932Z,25.27
2022-08-25T12:02:34.218Z,15.93
2022-08-25T12:06:15.822Z,15.40
2022-08-25T12:09:23.386Z,28.58
2022-08-25T12:12:32.934Z,13.68
2022-08-25T12:16:02.517Z,20.58
2022-08-25T12:19:28.964Z,12.30
2022-08-25T12:22:56.390Z,20.42
2022-08-25T12:26:10.998Z,15.15
2022-08-25T12:29:29.777Z,20.33
2022-08-25T12:32:59.553Z,18.08
2022-08-25T12:36:11.203Z,15.90
2022-08-25T12:39:24.227Z,14.90
2022-08-25T12:42:34.655Z,15.88
2022-08-25T12:45:45.211Z,17.92
2022-08-25T12:49:02.892Z,17.10
2022-08-25T12:52:13.805Z,23.58
2022-08-25T12:55:23.466Z,19.55
2022-08-25T12:58:58.821Z,23.20
2022-08-25T13:02:38.359Z,24.88
2022-08-25T13:06:22.409Z,23.98
2022-08-25T13:10:25.571Z,21.50
2022-08-25T13:13:48.398Z,22.13
2022-08-25T13:16:57.995Z,32.42
2022-08-25T13:20:18.215Z,17.15
2022-08-25T13:23:30.673Z,19.02
2022-08-25T13:26:48.227Z,16.10
2022-08-25T13:29:58.012Z,13.75
2022-08-25T13:33:20.366Z,13.40
2022-08-25T13:36:54.269Z,18.48
2022-08-25T13:40:17.734Z,12.10
2022-08-25T13:43:27.653Z,12.38
2022-08-25T13:46:35.506Z,15.38
2022-08-25T13:49:45.710Z,21.95
2022-08-25T13:52:57.744Z,19.10
2022-08-25T13:56:07.378Z,18.30
2022-08-25T13:59:25.744Z,17.08
2022-08-25T14:02:45.482Z,16.40
2022-08-25T14:06:08.165Z,22.95
2022-08-25T14:09:18.367Z,18.67
2022-08-25T14:12:40.882Z,10.88
2022-08-25T14:15:47.733Z,12.25
2022-08-25T14:19:00.677Z,11.75
2022-08-25T14:22:08.343Z,9.90
2022-08-25T14:25:14.772Z,7.18
2022-08-25T14:28:26.421Z,6.25
2022-08-25T14:31:39.325Z,9.30
2022-08-25T14:34:46.302Z,7.78
2022-08-25T14:37:53.169Z,5.38
2022-08-25T14:40:59.854Z,11.18
2022-08-25T14:44:08.733Z,7.78
2022-08-25T14:47:16.348Z,9.25
2022-08-25T14:50:24.038Z,9.38
2022-08-25T14:53:30.748Z,8.30
2022-08-25T14:56:37.726Z,9.85
2022-08-25T14:59:51.745Z,11.23
2022-08-25T15:02:58.319Z,9.50
2022-08-25T15:06:06.599Z,5.70
2022-08-25T15:09:16.479Z,10.07
2022-08-25T15:12:45.974Z,8.32
2022-08-25T15:15:52.636Z,11.35
2022-08-25T15:19:00.061Z,9.93
2022-08-25T15:22:07.730Z,10.40
2022-08-25T15:25:18.125Z,10.60
2022-08-25T15:28:26.574Z,7.75
2022-08-25T15:31:34.516Z,8.13
2022-08-25T15:34:42.262Z,11.77
2022-08-25T15:37:49.202Z,12.43
2022-08-25T15:40:55.963Z,8.50
2022-08-25T15:44:05.413Z,8.13
2022-08-25T15:47:13.179Z,14.88
2022-08-25T15:50:26.781Z,13.88
2022-08-25T15:53:33.509Z,7.63
2022-08-25T15:56:43.115Z,7.93
2022-08-25T15:59:49.566Z,12.90
2022-08-25T16:02:57.560Z,7.45
2022-08-25T16:06:05.806Z,7.45
2022-08-25T16:09:12.306Z,14.80
2022-08-25T16:12:18.970Z,9.45
2022-08-25T16:15:28.823Z,11.07
2022-08-25T16:18:36.646Z,10.85
2022-08-25T16:21:47.502Z,9.07
2022-08-25T16:24:54.576Z,12.70
2022-08-25T16:28:01.888Z,10.90
2022-08-25T16:31:12.180Z,6.30
2022-08-25T16:34:20.013Z,7.68
2022-08-25T16:37:26.561Z,9.55
2022-08-25T16:40:33.173Z,6.45
2022-08-25T16:43:40.374Z,8.90
2022-08-25T16:46:48.231Z,8.05
2022-08-25T16:49:56.544Z,10.25
2022-08-25T16:53:23.902Z,8.40
2022-08-25T16:56:31.457Z,6.50
2022-08-25T16:59:38.187Z,9.90
2022-08-25T17:02:45.249Z,8.60
2022-08-25T17:05:53.013Z,7.65
2022-08-25T17:08:59.416Z,9.63
2022-08-25T17:12:06.221Z,13.60
2022-08-25T17:15:12.594Z,6.70
2022-08-25T17:18:19.634Z,7.07
2022-08-25T17:21:31.561Z,15.40
2022-08-25T17:24:40.519Z,5.70
2022-08-25T17:27:47.458Z,7.90
2022-08-25T17:30:54.326Z,16.83
2022-08-25T17:34:01.076Z,4.97
2022-08-25T17:37:08.588Z,11.35
2022-08-25T17:40:16.358Z,8.52
2022-08-25T17:43:24.002Z,5.47
2022-08-25T17:46:30.382Z,5.75
2022-08-25T17:49:37.255Z,6.53
2022-08-25T17:52:44.866Z,5.35
2022-08-25T17:56:00.346Z,3.95
2022-08-25T17:59:06.809Z,5.15
2022-08-25T18:02:13.814Z,5.30
2022-08-25T18:05:20.264Z,3.30
2022-08-25T18:08:35.182Z,7.93
2022-08-25T18:11:42.360Z,4.83
2022-08-25T18:14:49.227Z,5.43
2022-08-25T18:17:56.923Z,10.18
2022-08-25T18:21:04.041Z,10.57
2022-08-25T18:24:14.719Z,5.87
2022-08-25T18:27:21.697Z,7.23
2022-08-25T18:30:28.721Z,4.40
2022-08-25T18:33:35.615Z,6.67
2022-08-25T18:36:42.009Z,19.03
2022-08-25T18:40:09.339Z,10.63
2022-08-25T18:43:16.220Z,4.27
2022-08-25T18:46:23.259Z,8.67
2022-08-25T18:49:29.706Z,8.63
2022-08-25T18:52:35.976Z,10.27
2022-08-25T18:55:45.486Z,15.77
2022-08-25T18:58:52.011Z,7.80
2022-08-25T19:01:58.424Z,9.10
2022-08-25T19:05:10.756Z,9.30
2022-08-25T19:08:19.938Z,12.53
2022-08-25T19:11:29.569Z,16.77
2022-08-25T19:14:36.073Z,6.97
2022-08-25T19:17:42.529Z,7.33
2022-08-25T19:20:48.964Z,4.37
2022-08-25T19:23:59.261Z,14.00
2022-08-25T19:27:07.341Z,9.30
2022-08-25T19:30:23.111Z,11.37
2022-08-25T19:33:31.343Z,7.00
2022-08-25T19:36:51.342Z,6.43
2022-08-25T19:39:58.739Z,9.57
2022-08-25T19:43:08.616Z,4.30
2022-08-25T19:46:15.588Z,6.13
2022-08-25T19:49:31.496Z,11.57
2022-08-25T19:52:39.874Z,8.63
2022-08-25T19:55:49.378Z,7.90
2022-08-25T19:58:57.565Z,11.33
2022-08-25T20:02:05.873Z,8.63
2022-08-25T20:05:14.657Z,9.47
2022-08-25T20:08:29.584Z,10.83
2022-08-25T20:11:37.866Z,12.20
2022-08-25T20:14:47.047Z,11.50
2022-08-25T20:17:56.457Z,8.00
2022-08-25T20:21:03.710Z,12.30
2022-08-25T20:24:28.156Z,8.37
2022-08-25T20:27:39.678Z,14.17
2022-08-25T20:30:47.845Z,12.80
2022-08-25T20:33:58.513Z,7.37
2022-08-25T20:37:06.924Z,9.30
2022-08-25T20:40:17.216Z,13.20
2022-08-25T20:43:27.916Z,9.93
2022-08-25T20:46:36.617Z,5.37
2022-08-25T20:49:44.898Z,3.70
2022-08-25T20:52:52.285Z,5.80
2022-08-25T20:55:58.699Z,10.67
2022-08-25T20:59:05.661Z,8.40
2022-08-25T21:02:18.812Z,4.70
2022-08-25T21:05:25.189Z,8.63
2022-08-25T21:08:31.603Z,5.60
2022-08-25T21:11:39.518Z,7.43
2022-08-25T21:14:46.298Z,2.13
2022-08-25T21:17:55.584Z,12.90
2022-08-25T21:21:11.051Z,5.23
2022-08-25T21:24:18.002Z,8.17
2022-08-25T21:27:24.503Z,9.90
2022-08-25T21:30:31.978Z,5.20
2022-08-25T21:33:40.930Z,6.00
2022-08-25T21:36:48.689Z,7.73
2022-08-25T21:39:55.279Z,5.80
2022-08-25T21:43:01.944Z,5.67
2022-08-25T21:46:13.307Z,4.17
2022-08-25T21:49:21.250Z,2.73
2022-08-25T21:52:27.569Z,3.80
2022-08-25T21:55:38.714Z,5.50
2022-08-25T21:58:49.426Z,5.50
2022-08-25T22:01:57.984Z,2.37
2022-08-25T22:05:09.439Z,5.70
2022-08-25T22:08:17.449Z,8.03
2022-08-25T22:11:26.626Z,2.73
2022-08-25T22:14:33.477Z,6.30
2022-08-25T22:17:41.271Z,4.00
2022-08-25T22:20:49.575Z,6.67
2022-08-25T22:23:57.115Z,6.07
2022-08-25T22:27:03.722Z,5.17
2022-08-25T22:30:21.997Z,3.53
2022-08-25T22:33:28.586Z,3.73
2022-08-25T22:36:40.096Z,2.13
2022-08-25T22:39:47.780Z,6.70
2022-08-25T22:42:54.714Z,4.33
2022-08-25T22:46:02.779Z,3.77
2022-08-25T22:49:09.250Z,4.77
2022-08-25T22:52:17.071Z,7.93
2022-08-25T22:55:23.630Z,7.60
2022-08-25T22:58:30.546Z,6.03
2022-08-25T23:01:37.978Z,8.30
2022-08-25T23:04:45.909Z,3.60
2022-08-25T23:07:53.411Z,5.07
2022-08-25T23:10:59.910Z,4.43
2022-08-25T23:14:09.458Z,3.47
2022-08-25T23:17:15.679Z,4.50
2022-08-25T23:20:45.234Z,3.43
2022-08-25T23:23:54.892Z,3.20
2022-08-25T23:27:05.113Z,5.83
2022-08-25T23:30:13.794Z,5.27
2022-08-25T23:33:21.500Z,5.57
2022-08-25T23:36:28.361Z,4.20
2022-08-25T23:39:39.278Z,4.37
2022-08-25T23:42:45.454Z,4.93
2022-08-25T23:45:53.747Z,5.07
2022-08-25T23:49:00.185Z,6.73
2022-08-25T23:52:07.045Z,5.37
2022-08-25T23:55:14.786Z,8.27
2022-08-25T23:58:22.449Z,4.80
